createdAt,value
2023-01-31T00:01:16.254Z,11.43
2023-01-31T00:03:43.789Z,13.53
2023-01-31T00:06:13.217Z,10.13
2023-01-31T00:08:40.301Z,11.83
2023-01-31T00:11:06.974Z,12.00
2023-01-31T00:13:33.730Z,15.57
2023-01-31T00:16:00.448Z,5.20
2023-01-31T00:18:27.840Z,13.47
2023-01-31T00:20:54.550Z,9.80
2023-01-31T00:23:21.249Z,4.67
2023-01-31T00:25:48.382Z,6.20
2023-01-31T00:28:14.957Z,4.90
2023-01-31T00:30:41.555Z,8.90
2023-01-31T00:33:08.892Z,10.60
2023-01-31T00:35:39.629Z,10.80
2023-01-31T00:38:06.294Z,10.33
2023-01-31T00:40:32.946Z,10.93
2023-01-31T00:42:59.558Z,6.80
2023-01-31T00:45:26.183Z,9.73
2023-01-31T00:47:52.784Z,9.93
2023-01-31T00:50:20.032Z,7.47
2023-01-31T00:52:47.390Z,10.13
2023-01-31T00:55:14.081Z,11.60
2023-01-31T00:57:40.759Z,9.33
2023-01-31T01:00:08.517Z,3.73
2023-01-31T01:02:35.711Z,10.47
2023-01-31T01:05:02.380Z,8.43
2023-01-31T01:07:28.969Z,4.30
2023-01-31T01:09:56.248Z,4.30
2023-01-31T01:12:22.940Z,6.87
2023-01-31T01:14:49.563Z,7.87
2023-01-31T01:17:16.180Z,5.80
2023-01-31T01:19:42.779Z,8.73
2023-01-31T01:22:09.440Z,7.30
2023-01-31T01:24:36.366Z,8.47
2023-01-31T01:27:04.992Z,6.50
2023-01-31T01:29:31.648Z,6.63
2023-01-31T01:31:58.408Z,9.67
2023-01-31T01:34:25.292Z,13.83
2023-01-31T01:36:51.922Z,7.60
2023-01-31T01:39:18.804Z,11.63
2023-01-31T01:41:46.819Z,8.13
2023-01-31T01:44:44.166Z,10.00
2023-01-31T01:47:21.514Z,9.00
2023-01-31T01:49:54.229Z,12.30
2023-01-31T01:52:22.466Z,9.70
2023-01-31T01:55:01.965Z,13.03
2023-01-31T01:57:36.407Z,9.40
2023-01-31T02:00:24.654Z,16.97
2023-01-31T02:02:55.527Z,19.50
2023-01-31T02:05:33.144Z,17.47
2023-01-31T02:08:01.496Z,15.30
2023-01-31T02:10:43.828Z,15.13
2023-01-31T02:13:11.797Z,15.77
2023-01-31T02:15:38.434Z,18.97
2023-01-31T02:18:08.412Z,17.90
2023-01-31T02:21:23.928Z,16.63
2023-01-31T02:24:19.054Z,16.00
2023-01-31T02:27:13.431Z,14.47
2023-01-31T02:30:00.712Z,17.37
2023-01-31T02:32:46.778Z,16.23
2023-01-31T02:35:57.756Z,15.37
2023-01-31T02:38:45.608Z,16.13
2023-01-31T02:41:26.483Z,14.47
2023-01-31T02:44:37.183Z,15.33
2023-01-31T02:47:23.646Z,16.67
2023-01-31T02:49:57.397Z,15.03
2023-01-31T02:52:43.198Z,14.13
2023-01-31T02:55:58.079Z,11.57
2023-01-31T02:58:31.089Z,12.53
2023-01-31T03:01:00.644Z,13.67
2023-01-31T03:03:34.404Z,12.53
2023-01-31T03:06:11.879Z,13.73
2023-01-31T03:08:52.225Z,13.47
2023-01-31T03:11:22.063Z,18.53
2023-01-31T03:14:03.136Z,14.20
2023-01-31T03:17:02.158Z,10.77
2023-01-31T03:19:49.824Z,9.47
2023-01-31T03:22:29.665Z,12.07
2023-01-31T03:24:57.085Z,9.17
2023-01-31T03:27:24.570Z,11.77
2023-01-31T03:30:00.945Z,11.97
2023-01-31T03:32:35.104Z,9.20
2023-01-31T03:35:02.669Z,12.90
2023-01-31T03:37:46.610Z,9.03
2023-01-31T03:40:34.807Z,12.97
2023-01-31T03:43:12.650Z,13.80
2023-01-31T03:45:46.834Z,13.33
2023-01-31T03:48:17.776Z,15.53
2023-01-31T03:50:52.795Z,16.27
2023-01-31T03:53:36.150Z,15.87
2023-01-31T03:56:07.307Z,10.90
2023-01-31T03:58:39.892Z,10.00
2023-01-31T04:01:08.910Z,14.10
2023-01-31T04:03:43.500Z,11.03
2023-01-31T04:06:11.503Z,18.63
2023-01-31T04:08:38.697Z,14.90
2023-01-31T04:11:13.008Z,14.40
2023-01-31T04:13:40.191Z,13.30
2023-01-31T04:16:07.411Z,18.03
2023-01-31T04:18:36.702Z,15.23
2023-01-31T04:21:04.713Z,21.53
2023-01-31T04:23:31.356Z,15.50
2023-01-31T04:25:57.956Z,19.13
2023-01-31T04:28:24.580Z,18.00
2023-01-31T04:30:55.451Z,19.03
2023-01-31T04:33:22.757Z,21.60
2023-01-31T04:35:51.322Z,17.40
2023-01-31T04:38:18.188Z,18.63
2023-01-31T04:40:44.948Z,17.77
2023-01-31T04:43:12.154Z,22.00
2023-01-31T04:45:38.844Z,16.37
2023-01-31T04:48:05.954Z,14.93
2023-01-31T04:50:33.027Z,19.83
2023-01-31T04:52:59.718Z,17.90
2023-01-31T04:55:27.466Z,16.03
2023-01-31T04:57:54.292Z,14.93
2023-01-31T05:00:21.177Z,16.03
2023-01-31T05:02:48.006Z,14.70
2023-01-31T05:05:14.659Z,13.87
2023-01-31T05:07:41.371Z,14.60
2023-01-31T05:10:08.821Z,14.80
2023-01-31T05:12:35.428Z,13.40
2023-01-31T05:15:02.282Z,17.00
2023-01-31T05:17:29.963Z,15.50
2023-01-31T05:19:57.322Z,13.27
2023-01-31T05:22:24.413Z,15.00
2023-01-31T05:24:51.332Z,16.00
2023-01-31T05:27:18.795Z,12.53
2023-01-31T05:29:46.003Z,15.80
2023-01-31T05:32:14.420Z,10.20
2023-01-31T05:34:41.085Z,16.30
2023-01-31T05:37:07.699Z,12.37
2023-01-31T05:39:34.589Z,18.83
2023-01-31T05:42:01.925Z,17.73
2023-01-31T05:44:28.608Z,21.47
2023-01-31T05:46:55.247Z,17.10
2023-01-31T05:49:21.826Z,14.43
2023-01-31T05:51:48.438Z,19.83
2023-01-31T05:54:15.076Z,19.73
2023-01-31T05:56:41.717Z,13.87
2023-01-31T05:59:08.455Z,13.00
2023-01-31T06:01:35.188Z,13.83
2023-01-31T06:04:02.079Z,20.40
2023-01-31T06:06:28.747Z,20.57
2023-01-31T06:08:55.387Z,18.10
2023-01-31T06:11:22.140Z,20.23
2023-01-31T06:13:49.406Z,22.17
2023-01-31T06:16:16.426Z,16.97
2023-01-31T06:18:43.202Z,22.43
2023-01-31T06:21:11.888Z,28.40
2023-01-31T06:23:38.892Z,23.83
2023-01-31T06:26:05.541Z,16.87
2023-01-31T06:28:32.135Z,21.57
2023-01-31T06:30:59.100Z,19.50
2023-01-31T06:33:42.273Z,24.13
2023-01-31T06:36:12.365Z,19.17
2023-01-31T06:38:39.062Z,20.00
2023-01-31T06:41:05.672Z,24.50
2023-01-31T06:43:32.822Z,24.77
2023-01-31T06:45:59.578Z,21.43
2023-01-31T06:48:26.192Z,19.97
2023-01-31T06:50:52.888Z,19.73
2023-01-31T06:53:19.589Z,19.50
2023-01-31T06:55:46.197Z,18.70
2023-01-31T06:58:12.817Z,23.10
2023-01-31T07:00:39.466Z,16.90
2023-01-31T07:03:06.047Z,18.27
2023-01-31T07:05:32.662Z,16.53
2023-01-31T07:07:59.301Z,17.10
2023-01-31T07:10:25.952Z,19.63
2023-01-31T07:12:52.623Z,19.30
2023-01-31T07:15:19.603Z,18.90
2023-01-31T07:17:46.509Z,16.73
2023-01-31T07:20:13.821Z,25.23
2023-01-31T07:22:40.507Z,20.53
2023-01-31T07:25:07.580Z,15.63
2023-01-31T07:27:34.372Z,14.33
2023-01-31T07:30:01.068Z,16.43
2023-01-31T07:32:31.234Z,39.23
2023-01-31T07:34:57.964Z,16.73
2023-01-31T07:37:24.719Z,22.63
2023-01-31T07:39:51.605Z,15.27
2023-01-31T07:42:18.220Z,17.93
2023-01-31T07:44:44.942Z,19.60
2023-01-31T07:47:11.748Z,16.67
2023-01-31T07:49:41.145Z,19.43
2023-01-31T07:52:10.860Z,15.77
2023-01-31T07:54:37.475Z,16.57
2023-01-31T07:57:05.887Z,16.40
2023-01-31T07:59:33.156Z,18.03
2023-01-31T08:02:18.786Z,17.23
2023-01-31T08:04:45.718Z,19.30
2023-01-31T08:07:12.677Z,17.40
2023-01-31T08:09:39.355Z,10.37
2023-01-31T08:12:08.005Z,17.33
2023-01-31T08:14:35.517Z,20.70
2023-01-31T08:17:04.808Z,18.03
2023-01-31T08:19:31.940Z,17.70
2023-01-31T08:21:58.604Z,21.13
2023-01-31T08:24:25.275Z,21.03
2023-01-31T08:26:51.999Z,26.90
2023-01-31T08:29:18.818Z,20.57
2023-01-31T08:31:46.139Z,19.07
2023-01-31T08:34:12.965Z,18.97
2023-01-31T08:36:39.611Z,21.70
2023-01-31T08:39:06.844Z,15.60
2023-01-31T08:41:34.847Z,15.73
2023-01-31T08:44:04.732Z,18.83
2023-01-31T08:46:34.259Z,21.33
2023-01-31T08:49:02.217Z,17.13
2023-01-31T08:51:29.242Z,18.13
2023-01-31T08:53:55.897Z,25.13
2023-01-31T08:56:25.955Z,21.80
2023-01-31T08:58:53.473Z,16.57
2023-01-31T09:01:22.114Z,16.83
2023-01-31T09:03:50.594Z,13.47
2023-01-31T09:06:20.264Z,12.87
2023-01-31T09:08:47.514Z,18.93
2023-01-31T09:11:19.553Z,23.83
2023-01-31T09:13:51.132Z,18.20
2023-01-31T09:16:19.139Z,17.33
2023-01-31T09:18:45.802Z,16.37
2023-01-31T09:21:14.247Z,19.07
2023-01-31T09:23:42.691Z,22.17
2023-01-31T09:26:11.276Z,19.70
2023-01-31T09:28:38.395Z,20.27
2023-01-31T09:31:08.731Z,11.27
2023-01-31T09:33:36.045Z,17.40
2023-01-31T09:36:08.513Z,7.83
2023-01-31T09:38:35.947Z,18.87
2023-01-31T09:41:29.941Z,16.80
2023-01-31T09:44:01.758Z,16.43
2023-01-31T09:46:34.975Z,14.00
2023-01-31T09:49:06.093Z,13.97
2023-01-31T09:51:34.995Z,11.40
2023-01-31T09:54:03.160Z,13.90
2023-01-31T09:56:42.658Z,11.90
2023-01-31T09:59:23.807Z,14.67
2023-01-31T10:02:11.209Z,12.87
2023-01-31T10:05:14.720Z,14.07
2023-01-31T10:07:44.280Z,13.23
2023-01-31T10:10:30.343Z,23.00
2023-01-31T10:13:03.194Z,11.53
2023-01-31T10:15:41.242Z,11.73
2023-01-31T10:18:29.268Z,15.97
2023-01-31T10:21:12.425Z,10.83
2023-01-31T10:23:45.113Z,11.40
2023-01-31T10:26:26.984Z,12.90
2023-01-31T10:29:04.931Z,12.03
2023-01-31T10:31:46.122Z,11.73
2023-01-31T10:34:26.765Z,11.47
2023-01-31T10:37:02.662Z,9.50
2023-01-31T10:39:42.070Z,12.27
2023-01-31T10:42:21.847Z,11.30
2023-01-31T10:45:01.044Z,9.87
2023-01-31T10:47:51.470Z,11.63
2023-01-31T10:50:40.536Z,14.00
2023-01-31T10:53:50.471Z,6.10
2023-01-31T10:56:32.646Z,10.00
2023-01-31T10:59:02.458Z,12.57
2023-01-31T11:01:29.409Z,14.27
2023-01-31T11:03:56.881Z,10.23
2023-01-31T11:06:24.870Z,16.53
2023-01-31T11:08:58.827Z,14.13
2023-01-31T11:11:27.462Z,11.60
2023-01-31T11:14:01.397Z,11.43
2023-01-31T11:16:42.088Z,11.87
2023-01-31T11:19:33.050Z,8.30
2023-01-31T11:22:00.210Z,5.03
2023-01-31T11:24:33.675Z,12.00
2023-01-31T11:27:07.335Z,11.57
2023-01-31T11:29:38.185Z,5.23
2023-01-31T11:32:22.592Z,10.10
2023-01-31T11:35:00.482Z,4.77
2023-01-31T11:37:29.505Z,8.80
2023-01-31T11:40:01.469Z,6.07
2023-01-31T11:42:28.241Z,7.70
2023-01-31T11:45:04.514Z,6.27
2023-01-31T11:47:43.419Z,8.07
2023-01-31T11:50:33.769Z,7.93
2023-01-31T11:53:02.825Z,7.80
2023-01-31T11:55:39.021Z,7.47
2023-01-31T11:58:17.411Z,6.10
2023-01-31T12:01:00.979Z,9.23
2023-01-31T12:03:29.163Z,4.90
2023-01-31T12:06:07.752Z,7.90
2023-01-31T12:08:42.313Z,6.43
2023-01-31T12:11:21.227Z,2.97
2023-01-31T12:13:47.900Z,5.47
2023-01-31T12:16:17.051Z,6.53
2023-01-31T12:18:54.824Z,8.37
2023-01-31T12:21:38.255Z,6.37
2023-01-31T12:24:40.117Z,7.77
2023-01-31T12:27:42.846Z,9.10
2023-01-31T12:30:27.247Z,3.60
2023-01-31T12:33:14.403Z,4.33
2023-01-31T12:35:52.436Z,5.77
2023-01-31T12:38:42.581Z,5.87
2023-01-31T12:41:35.822Z,4.73
2023-01-31T12:44:37.498Z,5.13
2023-01-31T12:47:18.637Z,4.27
2023-01-31T12:49:58.535Z,4.60
2023-01-31T12:52:44.695Z,4.23
2023-01-31T12:55:20.603Z,3.53
2023-01-31T12:58:13.004Z,3.17
2023-01-31T13:00:54.765Z,4.43
2023-01-31T13:03:47.388Z,4.50
2023-01-31T13:06:19.572Z,3.30
2023-01-31T13:09:07.275Z,4.57
2023-01-31T13:11:41.058Z,3.50
2023-01-31T13:14:15.198Z,3.67
2023-01-31T13:16:44.720Z,4.30
2023-01-31T13:19:25.429Z,2.83
2023-01-31T13:21:57.843Z,2.90
2023-01-31T13:24:40.952Z,2.60
2023-01-31T13:27:17.012Z,2.90
2023-01-31T13:29:52.806Z,2.73
2023-01-31T13:32:46.236Z,4.77
2023-01-31T13:35:12.823Z,2.77
2023-01-31T13:37:42.260Z,3.40
2023-01-31T13:40:19.660Z,2.73
2023-01-31T13:42:46.573Z,5.10
2023-01-31T13:45:23.816Z,5.40
2023-01-31T13:48:00.490Z,4.00
2023-01-31T13:50:51.625Z,9.27
2023-01-31T13:53:27.177Z,5.40
2023-01-31T13:55:54.624Z,3.63
2023-01-31T13:58:34.413Z,3.50
2023-01-31T14:01:09.585Z,11.53
2023-01-31T14:04:17.509Z,7.13
2023-01-31T14:06:54.783Z,6.90
2023-01-31T14:09:28.270Z,11.53
2023-01-31T14:12:17.802Z,7.10
2023-01-31T14:14:51.864Z,7.33
2023-01-31T14:17:21.347Z,6.27
2023-01-31T14:19:48.933Z,3.77
2023-01-31T14:22:26.688Z,2.57
2023-01-31T14:24:53.494Z,5.17
2023-01-31T14:27:23.698Z,5.00
2023-01-31T14:30:08.803Z,8.93
2023-01-31T14:32:46.990Z,6.33
2023-01-31T14:35:13.575Z,6.83
2023-01-31T14:38:10.001Z,9.03
2023-01-31T14:41:16.710Z,14.40
2023-01-31T14:43:58.303Z,12.60
2023-01-31T14:47:05.882Z,7.37
2023-01-31T14:50:01.909Z,8.53
2023-01-31T14:52:56.681Z,9.57
2023-01-31T14:55:48.302Z,8.70
2023-01-31T14:58:23.531Z,11.10
2023-01-31T15:00:54.629Z,13.80
2023-01-31T15:03:29.875Z,13.40
2023-01-31T15:06:17.501Z,12.80
2023-01-31T15:08:47.120Z,8.60
2023-01-31T15:11:42.416Z,13.00
2023-01-31T15:14:47.069Z,17.03
2023-01-31T15:17:40.394Z,9.77
2023-01-31T15:20:23.459Z,9.90
2023-01-31T15:22:52.045Z,9.63
2023-01-31T15:25:26.289Z,10.40
2023-01-31T15:27:56.188Z,17.23
2023-01-31T15:30:24.386Z,13.03
2023-01-31T15:33:08.245Z,3.53
2023-01-31T15:35:54.337Z,20.53
2023-01-31T15:38:34.353Z,3.10
2023-01-31T15:41:20.155Z,2.93
2023-01-31T15:43:48.196Z,13.87
2023-01-31T15:46:21.659Z,16.47
2023-01-31T15:48:48.538Z,4.63
2023-01-31T15:51:16.894Z,7.97
2023-01-31T15:53:43.546Z,10.33
2023-01-31T15:56:24.749Z,3.10
2023-01-31T15:58:54.208Z,9.93
2023-01-31T16:01:21.429Z,2.93
2023-01-31T16:03:56.541Z,22.47
2023-01-31T16:06:33.859Z,23.93
2023-01-31T16:09:03.610Z,17.90
2023-01-31T16:11:34.129Z,20.80
2023-01-31T16:14:03.424Z,21.20
2023-01-31T16:16:30.910Z,6.20
2023-01-31T16:18:59.510Z,14.50
2023-01-31T16:21:40.534Z,5.90
2023-01-31T16:24:18.206Z,4.70
2023-01-31T16:27:09.027Z,3.83
2023-01-31T16:29:42.264Z,3.77
2023-01-31T16:32:28.107Z,6.33
2023-01-31T16:34:58.326Z,4.70
2023-01-31T16:37:36.576Z,7.83
2023-01-31T16:40:41.709Z,5.20
2023-01-31T16:43:27.419Z,8.27
2023-01-31T16:46:06.845Z,4.17
2023-01-31T16:48:38.491Z,7.50
2023-01-31T16:51:25.509Z,7.50
2023-01-31T16:54:43.648Z,8.67
2023-01-31T16:57:38.215Z,8.00
2023-01-31T17:00:27.470Z,9.20
2023-01-31T17:02:56.505Z,4.03
2023-01-31T17:05:41.179Z,3.53
2023-01-31T17:08:18.373Z,16.23
2023-01-31T17:10:47.769Z,10.33
2023-01-31T17:13:22.775Z,14.07
2023-01-31T17:15:49.946Z,9.83
2023-01-31T17:18:17.039Z,9.97
2023-01-31T17:20:50.732Z,17.53
2023-01-31T17:23:18.597Z,8.10
2023-01-31T17:25:45.766Z,10.60
2023-01-31T17:28:12.383Z,17.63
2023-01-31T17:30:41.573Z,5.43
2023-01-31T17:33:13.374Z,4.63
2023-01-31T17:35:42.631Z,22.70
2023-01-31T17:38:09.269Z,6.03
2023-01-31T17:40:39.805Z,6.40
2023-01-31T17:43:06.721Z,20.97
2023-01-31T17:45:33.791Z,8.17
2023-01-31T17:48:00.495Z,16.30
2023-01-31T17:50:28.695Z,4.37
2023-01-31T17:52:56.559Z,5.17
2023-01-31T17:55:25.004Z,6.47
2023-01-31T17:57:51.934Z,6.30
2023-01-31T18:00:20.044Z,22.07
2023-01-31T18:02:46.995Z,5.90
2023-01-31T18:05:33.467Z,22.17
2023-01-31T18:08:05.122Z,10.00
2023-01-31T18:10:32.100Z,20.53
2023-01-31T18:12:58.715Z,6.70
2023-01-31T18:15:25.373Z,5.60
2023-01-31T18:17:52.042Z,8.30
2023-01-31T18:20:19.238Z,20.93
2023-01-31T18:22:46.712Z,8.03
2023-01-31T18:25:13.844Z,24.87
2023-01-31T18:27:40.594Z,25.70
2023-01-31T18:30:07.978Z,28.57
2023-01-31T18:32:35.126Z,29.07
2023-01-31T18:35:01.965Z,15.87
2023-01-31T18:37:28.555Z,26.07
2023-01-31T18:39:55.227Z,22.53
2023-01-31T18:42:22.196Z,26.97
2023-01-31T18:44:48.772Z,25.27
2023-01-31T18:47:16.424Z,13.50
2023-01-31T18:49:43.445Z,12.67
2023-01-31T18:52:10.604Z,10.30
2023-01-31T18:54:37.843Z,12.67
2023-01-31T18:57:05.151Z,9.47
2023-01-31T18:59:33.697Z,14.00
2023-01-31T19:02:00.303Z,7.43
2023-01-31T19:04:26.981Z,29.80
2023-01-31T19:06:53.607Z,13.53
2023-01-31T19:09:20.306Z,9.27
2023-01-31T19:11:46.962Z,29.53
2023-01-31T19:14:14.358Z,27.90
2023-01-31T19:16:42.709Z,9.67
2023-01-31T19:19:10.457Z,11.03
2023-01-31T19:21:38.362Z,24.30
2023-01-31T19:24:07.842Z,23.53
2023-01-31T19:26:35.689Z,8.13
2023-01-31T19:29:03.342Z,24.07
2023-01-31T19:31:31.626Z,20.67
2023-01-31T19:34:00.787Z,25.27
2023-01-31T19:36:33.356Z,29.87
2023-01-31T19:39:01.813Z,27.27
2023-01-31T19:41:29.045Z,11.67
2023-01-31T19:43:57.991Z,25.57
2023-01-31T19:46:33.229Z,26.90
2023-01-31T19:49:00.161Z,25.47
2023-01-31T19:51:27.259Z,32.83
2023-01-31T19:53:55.762Z,24.53
2023-01-31T19:56:24.149Z,22.47
2023-01-31T19:58:50.924Z,13.50
2023-01-31T20:01:18.287Z,12.60
2023-01-31T20:03:45.649Z,22.37
2023-01-31T20:06:17.565Z,27.13
2023-01-31T20:08:52.311Z,20.80
2023-01-31T20:11:19.361Z,19.33
2023-01-31T20:13:46.345Z,24.93
2023-01-31T20:16:13.826Z,26.27
2023-01-31T20:18:41.417Z,23.67
2023-01-31T20:21:12.086Z,29.37
2023-01-31T20:23:38.763Z,29.20
2023-01-31T20:26:05.493Z,25.50
2023-01-31T20:28:34.046Z,16.30
2023-01-31T20:31:09.655Z,9.83
2023-01-31T20:33:37.170Z,24.37
2023-01-31T20:36:04.897Z,27.13
2023-01-31T20:38:31.733Z,27.23
2023-01-31T20:40:58.447Z,32.47
2023-01-31T20:43:26.727Z,23.63
2023-01-31T20:45:53.398Z,13.93
2023-01-31T20:48:20.866Z,32.93
2023-01-31T20:50:57.820Z,22.87
2023-01-31T20:53:25.029Z,31.60
2023-01-31T20:56:03.149Z,29.43
2023-01-31T20:58:32.764Z,14.97
2023-01-31T21:01:00.071Z,14.80
2023-01-31T21:03:27.595Z,29.63
2023-01-31T21:05:54.423Z,22.30
2023-01-31T21:08:21.584Z,16.40
2023-01-31T21:10:52.352Z,21.67
2023-01-31T21:13:19.879Z,25.00
2023-01-31T21:16:08.316Z,23.13
2023-01-31T21:18:37.277Z,21.67
2023-01-31T21:21:09.471Z,26.20
2023-01-31T21:23:37.780Z,25.20
2023-01-31T21:26:06.800Z,24.33
2023-01-31T21:28:34.199Z,31.30
2023-01-31T21:31:03.179Z,14.10
2023-01-31T21:33:30.338Z,8.80
2023-01-31T21:35:59.657Z,28.07
2023-01-31T21:38:27.711Z,27.40
2023-01-31T21:41:14.287Z,24.07
2023-01-31T21:43:41.368Z,28.27
2023-01-31T21:46:09.759Z,24.30
2023-01-31T21:48:36.881Z,27.37
2023-01-31T21:51:06.157Z,24.50
2023-01-31T21:53:33.428Z,28.77
2023-01-31T21:56:04.439Z,22.63
2023-01-31T21:58:40.332Z,21.47
2023-01-31T22:01:14.416Z,19.90
2023-01-31T22:03:42.778Z,18.73
2023-01-31T22:06:12.514Z,25.30
2023-01-31T22:08:39.872Z,23.50
2023-01-31T22:11:12.368Z,29.00
2023-01-31T22:13:40.041Z,29.73
2023-01-31T22:16:09.784Z,21.93
2023-01-31T22:18:37.850Z,24.43
2023-01-31T22:21:13.906Z,15.93
2023-01-31T22:23:45.029Z,29.87
2023-01-31T22:26:16.326Z,19.77
2023-01-31T22:28:43.505Z,23.83
2023-01-31T22:31:11.033Z,24.03
2023-01-31T22:33:40.221Z,22.37
2023-01-31T22:36:10.263Z,21.70
2023-01-31T22:38:38.139Z,19.73
2023-01-31T22:41:08.225Z,10.90
2023-01-31T22:43:42.664Z,14.17
2023-01-31T22:46:13.065Z,18.73
2023-01-31T22:48:39.901Z,17.80
2023-01-31T22:51:11.293Z,15.40
2023-01-31T22:53:38.567Z,11.57
2023-01-31T22:56:14.402Z,27.20
2023-01-31T22:58:41.857Z,23.10
2023-01-31T23:01:17.292Z,15.43
2023-01-31T23:03:44.627Z,25.53
2023-01-31T23:06:11.841Z,19.10
2023-01-31T23:08:38.763Z,21.83
2023-01-31T23:11:09.309Z,25.13
2023-01-31T23:13:36.818Z,23.13
2023-01-31T23:16:04.973Z,25.57
2023-01-31T23:18:31.942Z,20.33
2023-01-31T23:21:10.074Z,14.83
2023-01-31T23:23:37.364Z,21.73
2023-01-31T23:26:04.964Z,15.53
2023-01-31T23:28:32.045Z,28.07
2023-01-31T23:30:58.742Z,20.53
2023-01-31T23:33:25.512Z,25.20
2023-01-31T23:35:52.132Z,23.80
2023-01-31T23:38:18.841Z,21.43
2023-01-31T23:40:51.818Z,11.77
2023-01-31T23:43:18.956Z,25.33
2023-01-31T23:45:45.571Z,18.77
2023-01-31T23:48:12.236Z,11.10
2023-01-31T23:50:39.247Z,23.73
2023-01-31T23:53:06.018Z,22.90
2023-01-31T23:55:32.742Z,12.50
2023-01-31T23:57:59.366Z,13.17
